createdAt,value
2023-06-08T00:00:21.170Z,36.45
2023-06-08T00:01:21.152Z,36.48
2023-06-08T00:02:21.269Z,36.47
2023-06-08T00:03:21.214Z,36.47
2023-06-08T00:04:21.159Z,36.51
2023-06-08T00:05:21.145Z,36.55
2023-06-08T00:06:21.154Z,36.50
2023-06-08T00:07:21.222Z,36.52
2023-06-08T00:08:21.142Z,36.54
2023-06-08T00:09:21.138Z,36.54
2023-06-08T00:10:21.142Z,36.56
2023-06-08T00:11:21.149Z,36.51
2023-06-08T00:12:21.225Z,36.55
2023-06-08T00:13:21.123Z,36.52
2023-06-08T00:14:21.958Z,36.55
2023-06-08T00:15:21.112Z,36.57
2023-06-08T00:16:21.116Z,36.55
2023-06-08T00:17:21.144Z,36.57
2023-06-08T00:18:21.303Z,36.56
2023-06-08T00:19:21.092Z,36.57
2023-06-08T00:20:21.172Z,36.59
2023-06-08T00:21:21.110Z,36.60
2023-06-08T00:22:21.080Z,36.59
2023-06-08T00:23:21.103Z,36.52
2023-06-08T00:24:21.243Z,36.53
2023-06-08T00:25:21.220Z,36.59
2023-06-08T00:26:21.264Z,36.57
2023-06-08T00:27:21.343Z,36.56
2023-06-08T00:28:21.368Z,36.54
2023-06-08T00:29:21.425Z,36.52
2023-06-08T00:30:21.465Z,36.49
2023-06-08T00:31:21.576Z,36.54
2023-06-08T00:32:21.699Z,36.56
2023-06-08T00:33:21.635Z,36.52
2023-06-08T00:34:21.744Z,36.52
2023-06-08T00:35:21.742Z,36.51
2023-06-08T00:36:21.807Z,36.55
2023-06-08T00:37:21.851Z,36.54
2023-06-08T00:38:21.915Z,36.53
2023-06-08T00:39:21.962Z,36.56
2023-06-08T00:40:22.017Z,36.53
2023-06-08T00:41:22.073Z,36.56
2023-06-08T00:42:22.117Z,36.56
2023-06-08T00:43:22.166Z,36.57
2023-06-08T00:44:22.232Z,36.59
2023-06-08T00:45:22.294Z,36.57
2023-06-08T00:46:22.377Z,36.56
2023-06-08T00:47:22.456Z,36.61
2023-06-08T00:48:22.455Z,36.58
2023-06-08T00:49:22.496Z,36.57
2023-06-08T00:50:22.558Z,36.59
2023-06-08T00:51:22.597Z,36.57
2023-06-08T00:52:22.716Z,36.61
2023-06-08T00:53:22.728Z,36.59
2023-06-08T00:54:22.779Z,36.59
2023-06-08T00:55:22.829Z,36.60
2023-06-08T00:56:22.887Z,36.56
2023-06-08T00:57:22.949Z,36.54
2023-06-08T00:58:23.030Z,36.57
2023-06-08T00:59:23.062Z,36.58
2023-06-08T01:00:23.124Z,36.58
2023-06-08T01:01:23.246Z,36.56
2023-06-08T01:02:23.242Z,36.54
2023-06-08T01:03:23.297Z,36.57
2023-06-08T01:04:23.380Z,36.57
2023-06-08T01:05:23.407Z,36.57
2023-06-08T01:06:23.464Z,36.58
2023-06-08T01:07:23.538Z,36.56
2023-06-08T01:08:23.594Z,36.57
2023-06-08T01:09:23.650Z,36.54
2023-06-08T01:10:23.699Z,36.58
2023-06-08T01:11:23.761Z,36.57
2023-06-08T01:12:23.822Z,36.56
2023-06-08T01:13:23.885Z,36.58
2023-06-08T01:14:23.938Z,36.60
2023-06-08T01:15:23.993Z,36.57
2023-06-08T01:16:24.125Z,36.57
2023-06-08T01:17:30.321Z,36.62
2023-06-08T01:18:25.125Z,36.57
2023-06-08T01:19:24.087Z,36.58
2023-06-08T01:20:24.077Z,36.59
2023-06-08T01:21:24.106Z,36.63
2023-06-08T01:22:24.069Z,36.62
2023-06-08T01:23:24.066Z,36.57
2023-06-08T01:24:24.067Z,36.57
2023-06-08T01:25:24.062Z,36.61
2023-06-08T01:26:24.061Z,36.60
2023-06-08T01:27:24.059Z,36.57
2023-06-08T01:28:24.123Z,36.60
2023-06-08T01:29:24.184Z,36.57
2023-06-08T01:30:24.233Z,36.58
2023-06-08T01:31:24.374Z,36.56
2023-06-08T01:32:24.420Z,36.59
2023-06-08T01:33:24.402Z,36.57
2023-06-08T01:34:24.466Z,36.62
2023-06-08T01:35:24.519Z,36.62
2023-06-08T01:36:24.578Z,36.58
2023-06-08T01:37:24.632Z,36.59
2023-06-08T01:38:24.986Z,36.59
2023-06-08T01:39:24.759Z,36.57
2023-06-08T01:40:24.804Z,36.61
2023-06-08T01:41:24.891Z,36.63
2023-06-08T01:42:24.957Z,36.62
2023-06-08T01:43:25.018Z,36.60
2023-06-08T01:44:25.035Z,36.60
2023-06-08T01:45:25.101Z,36.65
2023-06-08T01:46:25.200Z,36.62
2023-06-08T01:47:25.231Z,36.60
2023-06-08T01:48:25.282Z,36.57
2023-06-08T01:49:25.370Z,36.58
2023-06-08T01:50:25.418Z,36.61
2023-06-08T01:51:25.447Z,36.62
2023-06-08T01:52:25.505Z,36.60
2023-06-08T01:53:25.567Z,36.58
2023-06-08T01:54:25.616Z,36.61
2023-06-08T01:55:25.724Z,36.60
2023-06-08T01:56:25.719Z,36.59
2023-06-08T01:57:25.790Z,36.61
2023-06-08T01:58:25.835Z,36.57
2023-06-08T01:59:25.896Z,36.59
2023-06-08T02:00:26.000Z,36.58
2023-06-08T02:01:26.092Z,36.59
2023-06-08T02:02:26.206Z,36.59
2023-06-08T02:03:26.166Z,36.59
2023-06-08T02:04:26.190Z,36.59
2023-06-08T02:05:26.260Z,36.60
2023-06-08T02:06:26.307Z,36.61
2023-06-08T02:07:26.358Z,36.61
2023-06-08T02:08:26.424Z,36.59
2023-06-08T02:09:26.486Z,36.59
2023-06-08T02:10:26.534Z,36.60
2023-06-08T02:11:26.577Z,36.62
2023-06-08T02:12:26.644Z,36.59
2023-06-08T02:13:26.708Z,36.60
2023-06-08T02:14:26.761Z,36.60
2023-06-08T02:15:26.806Z,36.62
2023-06-08T02:16:26.906Z,36.61
2023-06-08T02:17:26.929Z,36.57
2023-06-08T02:18:26.983Z,36.62
2023-06-08T02:19:27.036Z,36.64
2023-06-08T02:20:27.090Z,36.59
2023-06-08T02:21:27.152Z,36.59
2023-06-08T02:22:27.208Z,36.60
2023-06-08T02:23:27.283Z,36.54
2023-06-08T02:24:27.358Z,36.59
2023-06-08T02:25:27.368Z,36.59
2023-06-08T02:26:27.418Z,36.62
2023-06-08T02:27:27.481Z,36.59
2023-06-08T02:28:27.546Z,36.60
2023-06-08T02:29:27.602Z,36.58
2023-06-08T02:30:27.679Z,36.56
2023-06-08T02:31:27.844Z,36.57
2023-06-08T02:32:27.782Z,36.58
2023-06-08T02:33:27.815Z,36.56
2023-06-08T02:34:27.881Z,36.56
2023-06-08T02:35:27.932Z,36.55
2023-06-08T02:36:27.997Z,36.60
2023-06-08T02:37:28.044Z,36.58
2023-06-08T02:38:28.141Z,36.56
2023-06-08T02:39:28.163Z,36.59
2023-06-08T02:40:28.215Z,36.54
2023-06-08T02:41:28.280Z,36.58
2023-06-08T02:42:28.377Z,36.55
2023-06-08T02:43:28.437Z,36.55
2023-06-08T02:44:28.461Z,36.55
2023-06-08T02:45:28.519Z,36.55
2023-06-08T02:46:28.634Z,36.56
2023-06-08T02:47:28.651Z,36.55
2023-06-08T02:48:28.679Z,36.56
2023-06-08T02:49:28.740Z,36.53
2023-06-08T02:50:28.807Z,36.56
2023-06-08T02:51:28.853Z,36.54
2023-06-08T02:52:28.935Z,36.55
2023-06-08T02:53:28.971Z,36.52
2023-06-08T02:54:29.015Z,36.58
2023-06-08T02:55:29.075Z,36.59
2023-06-08T02:56:29.122Z,36.56
2023-06-08T02:57:29.167Z,36.55
2023-06-08T02:58:29.228Z,36.61
2023-06-08T02:59:29.274Z,36.55
2023-06-08T03:00:29.335Z,36.55
2023-06-08T03:01:29.446Z,36.56
2023-06-08T03:02:29.530Z,36.59
2023-06-08T03:03:29.536Z,36.56
2023-06-08T03:04:29.584Z,36.61
2023-06-08T03:05:29.635Z,36.54
2023-06-08T03:06:29.685Z,36.60
2023-06-08T03:07:29.746Z,36.53
2023-06-08T03:08:29.812Z,36.61
2023-06-08T03:09:29.872Z,36.58
2023-06-08T03:10:29.969Z,36.55
2023-06-08T03:11:29.973Z,36.56
2023-06-08T03:12:30.054Z,36.59
2023-06-08T03:13:30.101Z,36.59
2023-06-08T03:14:30.313Z,36.59
2023-06-08T03:15:30.234Z,36.58
2023-06-08T03:16:30.342Z,36.60
2023-06-08T03:17:30.389Z,36.55
2023-06-08T03:18:30.400Z,36.58
2023-06-08T03:19:30.454Z,36.55
2023-06-08T03:20:30.519Z,36.54
2023-06-08T03:21:30.583Z,36.59
2023-06-08T03:22:30.694Z,36.54
2023-06-08T03:23:30.749Z,36.53
2023-06-08T03:24:30.774Z,36.56
2023-06-08T03:25:30.846Z,36.58
2023-06-08T03:26:30.962Z,36.58
2023-06-08T03:27:30.964Z,36.58
2023-06-08T03:28:31.013Z,36.59
2023-06-08T03:29:31.096Z,36.61
2023-06-08T03:30:31.135Z,36.58
2023-06-08T03:31:31.223Z,36.60
2023-06-08T03:32:31.361Z,36.58
2023-06-08T03:33:31.338Z,36.60
2023-06-08T03:34:31.433Z,36.55
2023-06-08T03:35:31.500Z,36.55
2023-06-08T03:36:31.519Z,36.56
2023-06-08T03:37:31.582Z,36.55
2023-06-08T03:38:31.652Z,36.55
2023-06-08T03:39:31.701Z,36.59
2023-06-08T03:40:31.762Z,36.54
2023-06-08T03:41:31.854Z,36.59
2023-06-08T03:42:31.892Z,36.54
2023-06-08T03:43:31.959Z,36.58
2023-06-08T03:44:32.007Z,36.59
2023-06-08T03:45:32.088Z,36.49
2023-06-08T03:46:32.201Z,36.59
2023-06-08T03:47:32.264Z,36.55
2023-06-08T03:48:32.345Z,36.59
2023-06-08T03:49:32.338Z,36.60
2023-06-08T03:50:32.474Z,36.53
2023-06-08T03:51:32.454Z,36.58
2023-06-08T03:52:32.553Z,36.59
2023-06-08T03:53:32.624Z,36.56
2023-06-08T03:54:32.646Z,36.51
2023-06-08T03:55:32.706Z,36.55
2023-06-08T03:56:32.768Z,36.55
2023-06-08T03:57:32.923Z,36.54
2023-06-08T03:58:32.913Z,36.54
2023-06-08T03:59:32.961Z,36.52
2023-06-08T04:00:33.010Z,36.54
2023-06-08T04:01:33.078Z,36.55
2023-06-08T04:02:33.187Z,36.53
2023-06-08T04:03:33.264Z,36.51
2023-06-08T04:04:33.429Z,36.53
2023-06-08T04:05:33.313Z,36.56
2023-06-08T04:06:33.384Z,36.55
2023-06-08T04:07:33.447Z,36.53
2023-06-08T04:08:33.513Z,36.53
2023-06-08T04:09:33.567Z,36.52
2023-06-08T04:10:33.641Z,36.51
2023-06-08T04:11:33.701Z,36.55
2023-06-08T04:12:33.767Z,36.53
2023-06-08T04:13:33.825Z,36.53
2023-06-08T04:14:33.885Z,36.53
2023-06-08T04:15:33.948Z,36.56
2023-06-08T04:16:34.141Z,36.56
2023-06-08T04:17:34.062Z,36.55
2023-06-08T04:18:34.125Z,36.57
2023-06-08T04:19:34.192Z,36.52
2023-06-08T04:20:34.244Z,36.51
2023-06-08T04:21:34.447Z,36.56
2023-06-08T04:22:34.365Z,36.58
2023-06-08T04:23:34.571Z,36.55
2023-06-08T04:24:34.473Z,36.57
2023-06-08T04:25:34.556Z,36.58
2023-06-08T04:26:34.596Z,36.56
2023-06-08T04:27:34.659Z,36.53
2023-06-08T04:28:34.742Z,36.53
2023-06-08T04:29:34.791Z,36.55
2023-06-08T04:30:34.853Z,36.57
2023-06-08T04:31:34.968Z,36.57
2023-06-08T04:32:35.037Z,36.56
2023-06-08T04:33:35.024Z,36.58
2023-06-08T04:34:35.084Z,36.52
2023-06-08T04:35:35.153Z,36.53
2023-06-08T04:36:35.205Z,36.55
2023-06-08T04:37:35.332Z,36.56
2023-06-08T04:38:35.331Z,36.49
2023-06-08T04:39:37.485Z,36.53
2023-06-08T04:40:35.369Z,36.53
2023-06-08T04:41:35.457Z,36.56
2023-06-08T04:42:35.381Z,36.50
2023-06-08T04:43:35.378Z,36.54
2023-06-08T04:44:35.371Z,36.52
2023-06-08T04:45:35.364Z,36.54
2023-06-08T04:46:35.421Z,36.49
2023-06-08T04:47:35.392Z,36.53
2023-06-08T04:48:35.397Z,36.51
2023-06-08T04:49:35.372Z,36.54
2023-06-08T04:50:35.445Z,36.52
2023-06-08T04:51:35.381Z,36.53
2023-06-08T04:52:35.374Z,36.55
2023-06-08T04:53:35.461Z,36.57
2023-06-08T04:54:35.367Z,36.50
2023-06-08T04:55:35.359Z,36.53
2023-06-08T04:56:35.362Z,36.54
2023-06-08T04:57:35.359Z,36.51
2023-06-08T04:58:35.369Z,36.49
2023-06-08T04:59:35.371Z,36.49
2023-06-08T05:00:35.623Z,36.53
2023-06-08T05:01:35.459Z,36.52
2023-06-08T05:02:35.402Z,36.53
2023-06-08T05:03:35.501Z,36.52
2023-06-08T05:04:35.367Z,36.53
2023-06-08T05:05:35.365Z,36.52
2023-06-08T05:06:35.369Z,36.52
2023-06-08T05:07:35.405Z,36.49
2023-06-08T05:08:35.457Z,36.52
2023-06-08T05:09:35.532Z,36.53
2023-06-08T05:10:35.586Z,36.54
2023-06-08T05:11:35.653Z,36.56
2023-06-08T05:12:35.733Z,36.49
2023-06-08T05:13:35.806Z,36.52
2023-06-08T05:14:35.861Z,36.56
2023-06-08T05:15:35.956Z,36.54
2023-06-08T05:16:36.006Z,36.53
2023-06-08T05:17:36.071Z,36.52
2023-06-08T05:18:36.191Z,36.50
2023-06-08T05:19:36.255Z,36.50
2023-06-08T05:20:36.336Z,36.47
2023-06-08T05:21:36.373Z,36.52
2023-06-08T05:22:36.382Z,36.54
2023-06-08T05:23:36.454Z,36.52
2023-06-08T05:24:36.488Z,36.53
2023-06-08T05:25:36.559Z,36.48
2023-06-08T05:26:36.665Z,36.50
2023-06-08T05:27:36.684Z,36.52
2023-06-08T05:28:36.752Z,36.50
2023-06-08T05:29:36.818Z,36.49
2023-06-08T05:30:36.884Z,36.53
2023-06-08T05:31:36.991Z,36.56
2023-06-08T05:32:37.037Z,36.53
2023-06-08T05:33:37.081Z,36.52
2023-06-08T05:34:37.141Z,36.52
2023-06-08T05:35:37.225Z,36.54
2023-06-08T05:36:37.265Z,36.53
2023-06-08T05:37:37.337Z,36.53
2023-06-08T05:38:37.420Z,36.52
2023-06-08T05:39:37.497Z,36.57
2023-06-08T05:40:37.596Z,36.53
2023-06-08T05:41:37.642Z,36.47
2023-06-08T05:42:37.660Z,36.51
2023-06-08T05:43:38.165Z,36.49
2023-06-08T05:44:37.795Z,36.48
2023-06-08T05:45:37.866Z,36.52
2023-06-08T05:46:37.921Z,36.47
2023-06-08T05:47:38.017Z,36.49
2023-06-08T05:48:38.133Z,36.53
2023-06-08T05:49:38.107Z,36.53
2023-06-08T05:50:38.167Z,36.49
2023-06-08T05:51:38.228Z,36.49
2023-06-08T05:52:38.287Z,36.48
2023-06-08T05:53:38.339Z,36.47
2023-06-08T05:54:38.405Z,36.49
2023-06-08T05:55:38.474Z,36.49
2023-06-08T05:56:38.537Z,36.48
2023-06-08T05:57:38.606Z,36.46
2023-06-08T05:58:49.387Z,36.46
2023-06-08T05:59:39.664Z,36.49
2023-06-08T06:00:38.658Z,36.49
2023-06-08T06:01:38.667Z,36.46
2023-06-08T06:02:38.699Z,36.49
2023-06-08T06:03:38.770Z,36.49
2023-06-08T06:04:38.733Z,36.46
2023-06-08T06:05:38.692Z,36.49
2023-06-08T06:06:38.630Z,36.49
2023-06-08T06:07:38.682Z,36.48
2023-06-08T06:08:39.838Z,36.48
2023-06-08T06:09:38.983Z,36.48
2023-06-08T06:10:39.062Z,36.52
2023-06-08T06:11:39.108Z,36.48
2023-06-08T06:12:40.147Z,36.44
2023-06-08T06:13:39.244Z,36.46
2023-06-08T06:14:39.297Z,36.43
2023-06-08T06:15:39.359Z,36.49
2023-06-08T06:16:41.162Z,36.48
2023-06-08T06:17:39.572Z,36.45
2023-06-08T06:18:39.431Z,36.49
2023-06-08T06:19:39.460Z,36.47
2023-06-08T06:20:39.419Z,36.46
2023-06-08T06:21:39.427Z,36.49
2023-06-08T06:22:39.408Z,36.49
2023-06-08T06:23:39.501Z,36.50
2023-06-08T06:24:39.477Z,36.46
2023-06-08T06:25:39.393Z,36.50
2023-06-08T06:26:39.394Z,36.49
2023-06-08T06:27:47.605Z,36.49
2023-06-08T06:28:40.390Z,36.52
2023-06-08T06:29:39.473Z,36.49
2023-06-08T06:30:39.368Z,36.49
2023-06-08T06:31:39.446Z,36.49
2023-06-08T06:32:39.409Z,36.54
2023-06-08T06:33:39.400Z,36.52
2023-06-08T06:34:39.394Z,36.50
2023-06-08T06:35:39.393Z,36.49
2023-06-08T06:36:39.379Z,36.47
2023-06-08T06:37:39.412Z,36.52
2023-06-08T06:38:39.493Z,36.50
2023-06-08T06:39:39.554Z,36.53
2023-06-08T06:40:39.624Z,36.50
2023-06-08T06:41:42.034Z,36.54
2023-06-08T06:42:39.927Z,36.54
2023-06-08T06:43:40.006Z,36.50
2023-06-08T06:44:40.040Z,36.53
2023-06-08T06:45:40.144Z,36.48
2023-06-08T06:46:40.228Z,36.54
2023-06-08T06:47:40.313Z,36.49
2023-06-08T06:48:40.319Z,36.52
2023-06-08T06:49:40.450Z,36.53
2023-06-08T06:50:40.440Z,36.52
2023-06-08T06:51:40.492Z,36.47
2023-06-08T06:52:40.561Z,36.50
2023-06-08T06:53:40.647Z,36.52
2023-06-08T06:54:40.695Z,36.52
2023-06-08T06:55:40.756Z,36.55
2023-06-08T06:56:40.864Z,36.52
2023-06-08T06:57:40.897Z,36.53
2023-06-08T06:58:40.949Z,36.49
2023-06-08T06:59:41.015Z,36.54
2023-06-08T07:00:41.077Z,36.49
2023-06-08T07:01:41.178Z,36.52
2023-06-08T07:02:41.315Z,36.54
2023-06-08T07:03:41.467Z,36.55
2023-06-08T07:04:41.338Z,36.53
2023-06-08T07:05:41.400Z,36.60
2023-06-08T07:06:41.474Z,36.53
2023-06-08T07:07:41.574Z,36.57
2023-06-08T07:08:41.606Z,36.54
2023-06-08T07:09:41.668Z,36.54
2023-06-08T07:10:41.740Z,36.58
2023-06-08T07:11:42.109Z,36.55
2023-06-08T07:12:41.884Z,36.55
2023-06-08T07:13:41.948Z,36.59
2023-06-08T07:14:42.003Z,36.55
2023-06-08T07:15:42.070Z,36.57
2023-06-08T07:16:42.161Z,36.54
2023-06-08T07:17:42.238Z,36.58
2023-06-08T07:18:42.215Z,36.55
2023-06-08T07:19:42.273Z,36.58
2023-06-08T07:20:42.397Z,36.57
2023-06-08T07:21:46.255Z,36.55
2023-06-08T07:23:17.752Z,36.56
2023-06-08T07:24:10.996Z,36.58
2023-06-08T07:25:21.761Z,36.55
2023-06-08T07:26:24.670Z,36.58
2023-06-08T07:26:43.336Z,36.59
2023-06-08T07:27:42.310Z,36.58
2023-06-08T07:28:42.315Z,36.62
2023-06-08T07:29:42.298Z,36.59
2023-06-08T07:30:42.292Z,36.56
2023-06-08T07:31:43.157Z,36.60
2023-06-08T07:32:42.302Z,36.59
2023-06-08T07:33:42.277Z,36.59
2023-06-08T07:34:42.269Z,36.62
2023-06-08T07:35:43.032Z,36.58
2023-06-08T07:36:42.252Z,36.59
2023-06-08T07:37:42.254Z,36.58
2023-06-08T07:38:42.277Z,36.59
2023-06-08T07:39:42.273Z,36.60
2023-06-08T07:40:42.291Z,36.59
2023-06-08T07:41:42.231Z,36.57
2023-06-08T07:42:42.224Z,36.59
2023-06-08T07:43:42.264Z,36.62
2023-06-08T07:44:42.224Z,36.62
2023-06-08T07:45:42.217Z,36.59
2023-06-08T07:46:42.292Z,36.59
2023-06-08T07:47:42.263Z,36.62
2023-06-08T07:48:42.203Z,36.60
2023-06-08T07:49:42.260Z,36.66
2023-06-08T07:50:42.210Z,36.60
2023-06-08T07:51:42.254Z,36.60
2023-06-08T07:52:44.849Z,36.58
2023-06-08T07:53:42.303Z,36.60
2023-06-08T07:54:42.285Z,36.60
2023-06-08T07:55:42.283Z,36.63
2023-06-08T07:56:42.281Z,36.60
2023-06-08T07:57:42.271Z,36.60
2023-06-08T07:58:42.268Z,36.62
2023-06-08T07:59:42.249Z,36.63
2023-06-08T08:00:42.241Z,36.67
2023-06-08T08:01:42.301Z,36.59
2023-06-08T08:02:42.312Z,36.63
2023-06-08T08:03:44.492Z,36.64
2023-06-08T08:04:42.326Z,36.62
2023-06-08T08:05:42.212Z,36.63
2023-06-08T08:06:42.193Z,36.60
2023-06-08T08:07:42.287Z,36.67
2023-06-08T08:08:42.195Z,36.59
2023-06-08T08:09:42.183Z,36.63
2023-06-08T08:10:42.194Z,36.63
2023-06-08T08:11:42.181Z,36.57
2023-06-08T08:12:42.165Z,36.63
2023-06-08T08:13:42.666Z,36.64
2023-06-08T08:14:42.166Z,36.64
2023-06-08T08:15:42.151Z,36.64
2023-06-08T08:16:42.193Z,36.66
2023-06-08T08:17:42.234Z,36.64
2023-06-08T08:18:42.139Z,36.63
2023-06-08T08:19:42.136Z,36.60
2023-06-08T08:20:42.138Z,36.66
2023-06-08T08:21:42.125Z,36.64
2023-06-08T08:22:42.112Z,36.67
2023-06-08T08:23:42.158Z,36.67
2023-06-08T08:24:42.120Z,36.68
2023-06-08T08:25:42.120Z,36.63
2023-06-08T08:26:42.112Z,36.62
2023-06-08T08:27:42.111Z,36.64
2023-06-08T08:28:42.109Z,36.65
2023-06-08T08:29:42.148Z,36.62
2023-06-08T08:30:42.207Z,36.59
2023-06-08T08:31:42.295Z,36.66
2023-06-08T08:32:42.352Z,36.64
2023-06-08T08:33:42.363Z,36.62
2023-06-08T08:34:42.403Z,36.62
2023-06-08T08:35:42.488Z,36.63
2023-06-08T08:36:42.530Z,36.64
2023-06-08T08:37:42.580Z,36.63
2023-06-08T08:38:42.629Z,36.64
2023-06-08T08:39:42.669Z,36.64
2023-06-08T08:40:42.744Z,36.63
2023-06-08T08:41:42.808Z,36.63
2023-06-08T08:42:42.862Z,36.63
2023-06-08T08:43:42.932Z,36.64
2023-06-08T08:44:43.107Z,36.67
2023-06-08T08:45:42.969Z,36.64
2023-06-08T08:46:43.026Z,36.65
2023-06-08T08:47:43.101Z,36.62
2023-06-08T08:48:43.125Z,36.62
2023-06-08T08:49:43.149Z,36.63
2023-06-08T08:50:43.221Z,36.62
2023-06-08T08:51:43.253Z,36.64
2023-06-08T08:52:43.314Z,36.62
2023-06-08T08:53:43.381Z,36.62
2023-06-08T08:54:43.412Z,36.63
2023-06-08T08:55:43.466Z,36.62
2023-06-08T08:56:43.561Z,36.59
2023-06-08T08:57:43.584Z,36.60
2023-06-08T08:58:43.646Z,36.58
2023-06-08T08:59:43.719Z,36.60
2023-06-08T09:00:44.654Z,36.60
2023-06-08T09:01:45.939Z,36.57
2023-06-08T09:02:43.871Z,36.58
2023-06-08T09:03:43.906Z,36.51
2023-06-08T09:04:43.843Z,36.55
2023-06-08T09:05:43.918Z,36.53
2023-06-08T09:06:43.819Z,36.55
2023-06-08T09:07:43.818Z,36.53
2023-06-08T09:08:43.821Z,36.56
2023-06-08T09:09:43.798Z,36.51
2023-06-08T09:10:43.806Z,36.53
2023-06-08T09:11:43.797Z,36.48
2023-06-08T09:12:43.827Z,36.52
2023-06-08T09:13:43.783Z,36.52
2023-06-08T09:14:43.775Z,36.51
2023-06-08T09:15:43.772Z,36.48
2023-06-08T09:16:43.789Z,36.49
2023-06-08T09:17:43.790Z,36.48
2023-06-08T09:18:43.751Z,36.46
2023-06-08T09:19:43.738Z,36.46
2023-06-08T09:20:43.739Z,36.48
2023-06-08T09:21:43.727Z,36.43
2023-06-08T09:22:43.719Z,36.47
2023-06-08T09:23:43.798Z,36.50
2023-06-08T09:24:43.712Z,36.44
2023-06-08T09:25:43.740Z,36.49
2023-06-08T09:26:43.694Z,36.50
2023-06-08T09:27:44.669Z,36.47
2023-06-08T09:28:43.688Z,36.45
2023-06-08T09:29:44.155Z,36.44
2023-06-08T09:30:43.830Z,36.42
2023-06-08T09:31:43.924Z,36.45
2023-06-08T09:32:43.857Z,36.43
2023-06-08T09:33:43.907Z,36.47
2023-06-08T09:34:43.959Z,36.43
2023-06-08T09:35:44.016Z,36.49
2023-06-08T09:36:44.072Z,36.49
2023-06-08T09:37:44.137Z,36.51
2023-06-08T09:38:44.273Z,36.46
2023-06-08T09:39:44.293Z,36.45
2023-06-08T09:40:44.317Z,36.45
2023-06-08T09:41:44.435Z,36.42
2023-06-08T09:42:44.444Z,36.45
2023-06-08T09:43:44.499Z,36.45
2023-06-08T09:44:44.564Z,36.42
2023-06-08T09:45:44.615Z,36.41
2023-06-08T09:46:44.675Z,36.41
2023-06-08T09:47:44.765Z,36.47
2023-06-08T09:48:44.780Z,36.41
2023-06-08T09:49:44.898Z,36.39
2023-06-08T09:50:44.894Z,36.45
2023-06-08T09:51:44.960Z,36.41
2023-06-08T09:52:45.011Z,36.43
2023-06-08T09:53:45.074Z,36.42
2023-06-08T09:54:45.129Z,36.40
2023-06-08T09:55:45.185Z,36.45
2023-06-08T09:56:45.232Z,36.43
2023-06-08T09:57:45.301Z,36.43
2023-06-08T09:58:45.360Z,36.42
2023-06-08T09:59:45.416Z,36.42
2023-06-08T10:00:45.476Z,36.38
2023-06-08T10:01:45.651Z,36.47
2023-06-08T10:02:45.694Z,36.44
2023-06-08T10:03:45.712Z,36.40
2023-06-08T10:04:45.712Z,36.45
2023-06-08T10:05:45.764Z,36.43
2023-06-08T10:06:45.850Z,36.44
2023-06-08T10:07:45.888Z,36.42
2023-06-08T10:08:45.955Z,36.40
2023-06-08T10:09:48.640Z,36.40
2023-06-08T10:10:46.008Z,36.40
2023-06-08T10:11:45.984Z,36.42
2023-06-08T10:12:45.975Z,36.40
2023-06-08T10:13:46.193Z,36.43
2023-06-08T10:14:45.961Z,36.44
2023-06-08T10:15:45.956Z,36.46
2023-06-08T10:16:46.031Z,36.38
2023-06-08T10:17:46.014Z,36.37
2023-06-08T10:18:45.931Z,36.40
2023-06-08T10:19:45.914Z,36.38
2023-06-08T10:20:45.912Z,36.39
2023-06-08T10:21:48.247Z,36.42
2023-06-08T10:22:45.990Z,36.44
2023-06-08T10:23:46.085Z,36.37
2023-06-08T10:24:59.827Z,36.37
2023-06-08T10:25:47.070Z,36.38
2023-06-08T10:26:46.076Z,36.40
2023-06-08T10:27:46.764Z,36.40
2023-06-08T10:28:46.113Z,36.38
2023-06-08T10:29:46.184Z,36.38
2023-06-08T10:30:46.030Z,36.42
2023-06-08T10:31:46.182Z,36.38
2023-06-08T10:32:46.073Z,36.43
2023-06-08T10:33:46.016Z,36.40
2023-06-08T10:34:46.023Z,36.40
2023-06-08T10:35:46.085Z,36.38
2023-06-08T10:36:46.145Z,36.36
2023-06-08T10:37:46.192Z,36.36
2023-06-08T10:38:46.280Z,36.36
2023-06-08T10:39:46.325Z,36.38
2023-06-08T10:40:46.376Z,36.39
2023-06-08T10:41:46.433Z,36.37
2023-06-08T10:42:46.487Z,36.32
2023-06-08T10:43:51.638Z,36.37
2023-06-08T10:44:47.523Z,36.38
2023-06-08T10:45:46.569Z,36.39
2023-06-08T10:46:46.575Z,36.37
2023-06-08T10:47:46.628Z,36.35
2023-06-08T10:48:49.474Z,36.41
2023-06-08T10:49:46.521Z,36.35
2023-06-08T10:50:46.504Z,36.36
2023-06-08T10:51:46.515Z,36.35
2023-06-08T10:52:46.589Z,36.40
2023-06-08T10:53:46.499Z,36.33
2023-06-08T10:54:48.691Z,36.37
2023-06-08T10:55:46.520Z,36.41
2023-06-08T10:56:56.739Z,36.33
2023-06-08T10:57:47.535Z,36.33
2023-06-08T10:58:46.572Z,36.36
2023-06-08T10:59:46.582Z,36.33
2023-06-08T11:00:46.531Z,36.36
2023-06-08T11:01:46.605Z,36.35
2023-06-08T11:02:46.585Z,36.33
2023-06-08T11:03:46.673Z,36.36
2023-06-08T11:04:49.728Z,36.36
2023-06-08T11:05:47.510Z,36.42
2023-06-08T11:06:46.523Z,36.33
2023-06-08T11:07:46.495Z,36.35
2023-06-08T11:08:46.527Z,36.36
2023-06-08T11:09:46.513Z,36.35
2023-06-08T11:10:46.527Z,36.30
2023-06-08T11:11:46.491Z,36.36
2023-06-08T11:12:46.545Z,36.36
2023-06-08T11:13:46.527Z,36.31
2023-06-08T11:14:46.494Z,36.32
2023-06-08T11:15:46.542Z,36.36
2023-06-08T11:16:46.610Z,36.32
2023-06-08T11:17:46.788Z,36.33
2023-06-08T11:18:47.738Z,36.31
2023-06-08T11:19:46.876Z,36.35
2023-06-08T11:20:46.817Z,36.33
2023-06-08T11:21:46.931Z,36.36
2023-06-08T11:22:46.931Z,36.32
2023-06-08T11:23:47.059Z,36.33
2023-06-08T11:24:47.080Z,36.31
2023-06-08T11:25:47.100Z,36.34
2023-06-08T11:26:59.727Z,36.32
2023-06-08T11:27:48.164Z,36.36
2023-06-08T11:28:47.155Z,36.32
2023-06-08T11:29:47.166Z,36.28
2023-06-08T11:30:47.242Z,36.33
2023-06-08T11:31:47.190Z,36.33
2023-06-08T11:32:47.211Z,36.30
2023-06-08T11:33:47.231Z,36.35
2023-06-08T11:34:51.608Z,36.32
2023-06-08T11:35:47.137Z,36.34
2023-06-08T11:36:47.141Z,36.28
2023-06-08T11:37:47.132Z,36.28
2023-06-08T11:38:47.196Z,36.33
2023-06-08T11:39:47.137Z,36.31
2023-06-08T11:40:47.114Z,36.31
2023-06-08T11:41:47.114Z,36.33
2023-06-08T11:42:47.114Z,36.30
2023-06-08T11:43:47.121Z,36.31
2023-06-08T11:44:47.177Z,36.30
2023-06-08T11:45:47.273Z,36.28
2023-06-08T11:46:47.337Z,36.27
2023-06-08T11:47:48.296Z,36.30
2023-06-08T11:48:48.322Z,36.28
2023-06-08T11:49:47.318Z,36.32
2023-06-08T11:50:47.333Z,36.35
2023-06-08T11:51:47.313Z,36.33
2023-06-08T11:52:47.298Z,36.30
2023-06-08T11:53:47.291Z,36.36
2023-06-08T11:54:47.728Z,36.34
2023-06-08T11:55:47.411Z,36.31
2023-06-08T11:56:47.264Z,36.32
2023-06-08T11:57:47.319Z,36.31
2023-06-08T11:58:47.403Z,36.30
2023-06-08T11:59:47.391Z,36.32
2023-06-08T12:00:47.440Z,36.30
2023-06-08T12:01:47.517Z,36.31
2023-06-08T12:02:47.665Z,36.34
2023-06-08T12:03:47.840Z,36.31
2023-06-08T12:04:47.673Z,36.30
2023-06-08T12:05:47.726Z,36.27
2023-06-08T12:06:47.795Z,36.32
2023-06-08T12:07:47.845Z,36.33
2023-06-08T12:08:47.908Z,36.31
2023-06-08T12:09:47.953Z,36.32
2023-06-08T12:10:48.100Z,36.31
2023-06-08T12:11:48.077Z,36.31
2023-06-08T12:12:48.182Z,36.35
2023-06-08T12:13:48.185Z,36.27
2023-06-08T12:14:48.242Z,36.28
2023-06-08T12:15:48.303Z,36.31
2023-06-08T12:16:48.396Z,36.32
2023-06-08T12:17:48.448Z,36.30
2023-06-08T12:18:48.460Z,36.31
2023-06-08T12:19:48.748Z,36.31
2023-06-08T12:20:48.583Z,36.30
2023-06-08T12:21:48.666Z,36.33
2023-06-08T12:22:48.703Z,36.28
2023-06-08T12:23:48.863Z,36.31
2023-06-08T12:24:48.811Z,36.29
2023-06-08T12:25:48.879Z,36.28
2023-06-08T12:26:48.932Z,36.30
2023-06-08T12:27:48.986Z,36.28
2023-06-08T12:28:49.053Z,36.29
2023-06-08T12:29:49.119Z,36.27
2023-06-08T12:30:49.217Z,36.26
2023-06-08T12:31:49.313Z,36.30
2023-06-08T12:32:49.348Z,36.28
2023-06-08T12:33:49.343Z,36.31
2023-06-08T12:34:50.250Z,36.31
2023-06-08T12:35:49.449Z,36.24
2023-06-08T12:36:49.584Z,36.28
2023-06-08T12:37:49.553Z,36.28
2023-06-08T12:38:49.670Z,36.28
2023-06-08T12:39:49.702Z,36.22
2023-06-08T12:40:49.722Z,36.28
2023-06-08T12:41:49.777Z,36.28
2023-06-08T12:42:49.887Z,36.30
2023-06-08T12:43:49.898Z,36.30
2023-06-08T12:44:49.957Z,36.27
2023-06-08T12:45:50.004Z,36.24
2023-06-08T12:46:50.118Z,36.24
2023-06-08T12:47:50.137Z,36.27
2023-06-08T12:48:50.199Z,36.25
2023-06-08T12:49:50.240Z,36.24
2023-06-08T12:50:50.315Z,36.26
2023-06-08T12:51:50.377Z,36.26
2023-06-08T12:52:50.426Z,36.28